Time;durP1;ratioP1;P1;durP2;ratioP2;P2;SDS_P1;SDS_P2;PMS_P1;PMS_P2;Temp;Humidity;BMP_temperature;BMP_pressure;BME280_temperature;BME280_humidity;BME280_pressure;Samples;Min_cycle;Max_cycle;Signal;HPM_P1;HPM_P2
2022/10/20 00:01:40;;;;;;;;;;;19.70;55.60;;;;;;5051630;28;20278;-61
2022/10/20 00:04:06;;;;;;;;;;;19.70;55.50;;;;;;5065922;28;19908;-61
2022/10/20 00:06:31;;;;;;;;;;;19.80;55.60;;;;;;5071659;28;19909;-62
2022/10/20 00:08:57;;;;;;;;;;;19.80;55.50;;;;;;5083187;28;19912;-61
2022/10/20 00:11:23;;;;;;;;;;;19.80;55.50;;;;;;5073279;28;20459;-61
2022/10/20 00:13:49;;;;;;;;;;;19.80;55.40;;;;;;5091713;28;19956;-61
2022/10/20 00:16:14;;;;;;;;;;;19.80;55.30;;;;;;5091768;28;19908;-61
2022/10/20 00:18:40;;;;;;;;;;;19.80;55.40;;;;;;5091432;28;19908;-61
2022/10/20 00:21:13;;;;;;;;;;;19.80;55.40;;;;;;5091714;28;19908;-62
2022/10/20 00:23:38;;;;;;;;;;;19.80;55.30;;;;;;5069696;28;19974;-61
2022/10/20 00:26:04;;;;;;;;;;;19.80;55.40;;;;;;5093042;28;19912;-61
2022/10/20 00:28:30;;;;;;;;;;;19.70;55.80;;;;;;5077745;28;20313;-61
2022/10/20 00:30:55;;;;;;;;;;;19.70;55.50;;;;;;5095677;28;19908;-61
2022/10/20 00:33:21;;;;;;;;;;;19.70;55.40;;;;;;5095640;28;20359;-61
2022/10/20 00:35:47;;;;;;;;;;;19.70;55.30;;;;;;5095475;28;20294;-61
2022/10/20 00:38:12;;;;;;;;;;;19.70;55.20;;;;;;5095708;28;19973;-61
2022/10/20 00:40:37;;;;;;;;;;;19.70;55.30;;;;;;5094718;28;19999;-61
2022/10/20 00:43:03;;;;;;;;;;;19.70;55.30;;;;;;5095454;28;19908;-61
2022/10/20 00:45:28;;;;;;;;;;;19.70;55.40;;;;;;5095163;28;19915;-61
2022/10/20 00:47:58;;;;;;;;;;;19.60;55.20;;;;;;5077491;28;19938;-61
2022/10/20 00:50:25;;;;;;;;;;;19.60;55.30;;;;;;5095171;28;19908;-61
2022/10/20 00:52:50;;;;;;;;;;;19.60;55.50;;;;;;5077298;28;19908;-61
2022/10/20 00:55:18;;;;;;;;;;;19.60;55.50;;;;;;5076200;28;19963;-61
2022/10/20 00:57:45;;;;;;;;;;;19.60;55.50;;;;;;5077253;28;19908;-61
2022/10/20 01:00:10;;;;;;;;;;;19.60;55.60;;;;;;5095069;28;20333;-61
2022/10/20 01:02:36;;;;;;;;;;;19.50;55.60;;;;;;5095098;28;19909;-61
2022/10/20 01:05:01;;;;;;;;;;;19.50;55.40;;;;;;5094694;28;19916;-61
2022/10/20 01:07:27;;;;;;;;;;;19.60;55.30;;;;;;5095481;28;19957;-61
2022/10/20 01:09:52;;;;;;;;;;;19.60;55.40;;;;;;5076510;28;19991;-61
2022/10/20 01:12:44;;;;;;;;;;;19.60;55.40;;;;;;5095145;28;19919;-61
2022/10/20 01:15:13;;;;;;;;;;;19.50;55.30;;;;;;5050820;28;20367;-61
2022/10/20 01:17:47;;;;;;;;;;;19.60;55.30;;;;;;5056699;28;20279;-61
2022/10/20 01:20:42;;;;;;;;;;;19.60;55.40;;;;;;5074456;28;20417;-61
2022/10/20 01:23:26;;;;;;;;;;;19.60;55.30;;;;;;4985615;28;20229;-61
2022/10/20 01:26:10;;;;;;;;;;;19.60;55.20;;;;;;5073609;28;20006;-61
2022/10/20 01:28:38;;;;;;;;;;;19.60;55.00;;;;;;5074382;28;20298;-62
2022/10/20 01:31:05;;;;;;;;;;;19.60;55.00;;;;;;5074397;28;20387;-61
2022/10/20 01:33:41;;;;;;;;;;;19.60;54.90;;;;;;5056153;28;20383;-61
2022/10/20 01:36:11;;;;;;;;;;;19.60;55.10;;;;;;5055218;28;19912;-61
2022/10/20 01:38:45;;;;;;;;;;;19.60;55.30;;;;;;5064545;28;19908;-61
2022/10/20 01:41:17;;;;;;;;;;;19.70;55.20;;;;;;5094579;28;19915;-61
2022/10/20 01:43:43;;;;;;;;;;;19.60;55.30;;;;;;5076151;28;19943;-61
2022/10/20 01:46:09;;;;;;;;;;;19.60;55.30;;;;;;5076361;28;19962;-61
2022/10/20 01:48:36;;;;;;;;;;;19.60;55.10;;;;;;5076098;28;20332;-61
2022/10/20 01:51:02;;;;;;;;;;;19.60;55.10;;;;;;5094175;28;19912;-62
2022/10/20 01:53:27;;;;;;;;;;;19.70;55.20;;;;;;5075966;28;19919;-62
2022/10/20 01:55:53;;;;;;;;;;;19.60;55.00;;;;;;5075009;28;19908;-62
2022/10/20 01:58:22;;;;;;;;;;;19.70;55.20;;;;;;5075971;28;19908;-62
2022/10/20 02:00:48;;;;;;;;;;;19.70;55.10;;;;;;5094011;28;19916;-62
2022/10/20 02:03:29;;;;;;;;;;;19.70;54.80;;;;;;5065064;28;20351;-62
2022/10/20 02:05:57;;;;;;;;;;;19.70;54.90;;;;;;5073453;28;19956;-62
2022/10/20 02:08:29;;;;;;;;;;;19.70;54.90;;;;;;5080265;28;20393;-62
2022/10/20 02:10:56;;;;;;;;;;;19.70;54.70;;;;;;5074929;28;19908;-62
2022/10/20 02:13:22;;;;;;;;;;;19.70;54.70;;;;;;5058506;28;21881;-62
2022/10/20 02:15:51;;;;;;;;;;;19.80;54.90;;;;;;5093806;28;20356;-62
2022/10/20 02:18:24;;;;;;;;;;;19.80;54.90;;;;;;5075539;28;19908;-62
2022/10/20 02:20:49;;;;;;;;;;;19.80;54.80;;;;;;5075445;28;19980;-62
2022/10/20 02:23:15;;;;;;;;;;;19.80;54.80;;;;;;5093679;28;20256;-62
2022/10/20 02:25:40;;;;;;;;;;;19.70;54.60;;;;;;5074533;28;19909;-62
2022/10/20 02:28:07;;;;;;;;;;;19.80;54.60;;;;;;5093881;28;19939;-62
2022/10/20 02:30:33;;;;;;;;;;;19.80;54.80;;;;;;5093449;28;20013;-62
2022/10/20 02:32:58;;;;;;;;;;;19.70;54.60;;;;;;5093518;28;20035;-62
2022/10/20 02:35:30;;;;;;;;;;;19.70;54.70;;;;;;5093181;28;19999;-62
2022/10/20 02:37:56;;;;;;;;;;;19.70;54.50;;;;;;5093473;28;19908;-62
2022/10/20 02:40:21;;;;;;;;;;;19.70;54.70;;;;;;5092364;28;20256;-62
2022/10/20 02:42:47;;;;;;;;;;;19.70;54.60;;;;;;5093411;28;19912;-62
2022/10/20 02:45:12;;;;;;;;;;;19.70;54.60;;;;;;5074888;28;19912;-62
2022/10/20 02:47:38;;;;;;;;;;;19.60;54.70;;;;;;5093080;28;19914;-62
2022/10/20 02:50:04;;;;;;;;;;;19.60;54.70;;;;;;5093031;28;19998;-62
2022/10/20 02:52:29;;;;;;;;;;;19.60;54.70;;;;;;5083002;28;19956;-62
2022/10/20 02:54:55;;;;;;;;;;;19.60;54.70;;;;;;5071971;28;19978;-62
2022/10/20 02:57:20;;;;;;;;;;;19.50;54.60;;;;;;5073152;28;19915;-62
2022/10/20 02:59:46;;;;;;;;;;;19.50;54.60;;;;;;5072867;28;19908;-62
2022/10/20 03:02:11;;;;;;;;;;;19.50;54.60;;;;;;5073036;28;19941;-62
2022/10/20 03:04:36;;;;;;;;;;;19.40;54.60;;;;;;5051142;28;19920;-62
2022/10/20 03:07:02;;;;;;;;;;;19.50;54.60;;;;;;5052791;28;19999;-62
2022/10/20 03:09:27;;;;;;;;;;;19.50;54.60;;;;;;5067306;28;19916;-62
2022/10/20 03:11:53;;;;;;;;;;;19.40;54.50;;;;;;5072958;28;19996;-62
2022/10/20 03:14:18;;;;;;;;;;;19.40;54.50;;;;;;5072539;28;19920;-62
2022/10/20 03:16:44;;;;;;;;;;;19.50;54.60;;;;;;5072620;28;19952;-62
2022/10/20 03:19:09;;;;;;;;;;;19.40;54.50;;;;;;5072281;28;19970;-62
2022/10/20 03:21:35;;;;;;;;;;;19.40;54.50;;;;;;5071412;28;19915;-62
2022/10/20 03:24:00;;;;;;;;;;;19.40;54.50;;;;;;5071591;28;19955;-62
2022/10/20 03:26:25;;;;;;;;;;;19.40;54.70;;;;;;5072641;28;20386;-62
2022/10/20 03:28:51;;;;;;;;;;;19.40;54.60;;;;;;5072432;28;20390;-62
2022/10/20 03:31:16;;;;;;;;;;;19.40;54.60;;;;;;5072626;28;20405;-62
2022/10/20 03:33:42;;;;;;;;;;;19.40;54.50;;;;;;5072321;28;19913;-62
2022/10/20 03:36:07;;;;;;;;;;;19.40;54.50;;;;;;5072575;28;20291;-62
2022/10/20 03:38:33;;;;;;;;;;;19.50;54.60;;;;;;5072107;28;20290;-62
2022/10/20 03:40:58;;;;;;;;;;;19.50;54.60;;;;;;5069564;28;19909;-62
2022/10/20 03:43:24;;;;;;;;;;;19.50;54.60;;;;;;5052406;28;19916;-62
2022/10/20 03:45:49;;;;;;;;;;;19.50;54.60;;;;;;5052173;28;19916;-62
2022/10/20 03:48:14;;;;;;;;;;;19.50;54.60;;;;;;5052399;28;19909;-62
2022/10/20 03:50:40;;;;;;;;;;;19.50;54.60;;;;;;5052104;28;20360;-62
2022/10/20 03:53:06;;;;;;;;;;;19.50;54.60;;;;;;5067671;28;20020;-62
2022/10/20 03:55:31;;;;;;;;;;;19.50;54.60;;;;;;5050071;28;19915;-62
2022/10/20 03:57:57;;;;;;;;;;;19.50;54.60;;;;;;5052538;28;19913;-62
2022/10/20 04:00:22;;;;;;;;;;;19.50;54.60;;;;;;5055752;28;20479;-62
2022/10/20 04:02:48;;;;;;;;;;;19.50;54.60;;;;;;5056123;28;19909;-62
2022/10/20 04:05:14;;;;;;;;;;;19.50;54.60;;;;;;5067213;28;20359;-62
2022/10/20 04:07:39;;;;;;;;;;;19.50;54.60;;;;;;5076754;28;19909;-62
2022/10/20 04:10:05;;;;;;;;;;;19.40;54.50;;;;;;5095146;28;19961;-62
2022/10/20 04:12:31;;;;;;;;;;;19.50;54.60;;;;;;5096287;28;20390;-62
2022/10/20 04:14:56;;;;;;;;;;;19.50;54.60;;;;;;5077576;28;19916;-62
2022/10/20 04:17:21;;;;;;;;;;;19.50;54.60;;;;;;5096016;28;20351;-62
2022/10/20 04:19:47;;;;;;;;;;;19.50;54.50;;;;;;5082368;28;20371;-63
2022/10/20 04:22:12;;;;;;;;;;;19.50;54.30;;;;;;5075686;28;19919;-63
2022/10/20 04:24:38;;;;;;;;;;;19.50;54.10;;;;;;5074616;28;19930;-63
2022/10/20 04:27:03;;;;;;;;;;;19.50;54.20;;;;;;5075671;28;19908;-62
2022/10/20 04:29:29;;;;;;;;;;;19.50;54.10;;;;;;5075492;28;19915;-62
2022/10/20 04:31:54;;;;;;;;;;;19.50;54.30;;;;;;5057592;28;19909;-62
2022/10/20 04:34:20;;;;;;;;;;;19.50;54.30;;;;;;5075212;28;20400;-62
2022/10/20 04:36:45;;;;;;;;;;;19.40;54.20;;;;;;5057552;28;20400;-62
2022/10/20 04:39:11;;;;;;;;;;;19.40;54.30;;;;;;5087663;28;19931;-62
2022/10/20 04:41:36;;;;;;;;;;;19.40;54.90;;;;;;5095778;28;19952;-62
2022/10/20 04:44:01;;;;;;;;;;;19.40;54.00;;;;;;5095178;28;19912;-62
2022/10/20 04:46:27;;;;;;;;;;;19.40;54.10;;;;;;5095610;28;20008;-62
2022/10/20 04:48:52;;;;;;;;;;;19.40;54.10;;;;;;5095229;28;19908;-62
2022/10/20 04:51:18;;;;;;;;;;;19.30;54.20;;;;;;5095373;28;19909;-63
2022/10/20 04:53:43;;;;;;;;;;;19.30;54.40;;;;;;5094648;28;19912;-63
2022/10/20 04:56:10;;;;;;;;;;;19.30;54.40;;;;;;5077030;28;19908;-63
2022/10/20 04:58:35;;;;;;;;;;;19.30;54.40;;;;;;5077128;28;20263;-62
2022/10/20 05:01:07;;;;;;;;;;;19.30;54.50;;;;;;5077182;28;19915;-62
2022/10/20 05:03:33;;;;;;;;;;;19.30;54.40;;;;;;5076976;28;19980;-62
2022/10/20 05:06:08;;;;;;;;;;;19.20;54.30;;;;;;5094914;28;20014;-62
2022/10/20 05:08:34;;;;;;;;;;;19.20;54.30;;;;;;5073176;28;20413;-62
2022/10/20 05:10:59;;;;;;;;;;;19.20;54.30;;;;;;5074424;28;19909;-62
2022/10/20 05:13:25;;;;;;;;;;;19.20;54.30;;;;;;5074886;28;19965;-62
2022/10/20 05:15:51;;;;;;;;;;;19.20;54.30;;;;;;5074496;28;19936;-62
2022/10/20 05:18:16;;;;;;;;;;;19.20;54.30;;;;;;5056768;28;19948;-62
2022/10/20 05:20:42;;;;;;;;;;;19.10;54.20;;;;;;5074445;28;19970;-62
2022/10/20 05:23:07;;;;;;;;;;;19.20;54.30;;;;;;5074525;28;19935;-62
2022/10/20 05:25:35;;;;;;;;;;;19.10;54.20;;;;;;5073517;28;19931;-62
2022/10/20 05:28:00;;;;;;;;;;;19.20;54.30;;;;;;5056558;28;20356;-62
2022/10/20 05:30:26;;;;;;;;;;;19.20;54.30;;;;;;5074092;28;19914;-62
2022/10/20 05:32:51;;;;;;;;;;;19.20;54.30;;;;;;5074347;28;20009;-62
2022/10/20 05:35:16;;;;;;;;;;;19.20;54.40;;;;;;5074016;28;19915;-63
2022/10/20 05:37:42;;;;;;;;;;;19.20;54.10;;;;;;5057198;28;19908;-62
2022/10/20 05:40:08;;;;;;;;;;;19.30;54.00;;;;;;5093450;28;20362;-62
2022/10/20 05:42:34;;;;;;;;;;;19.30;54.60;;;;;;5078740;28;19908;-62
2022/10/20 05:44:59;;;;;;;;;;;19.30;54.00;;;;;;5073942;28;19915;-62
2022/10/20 05:47:24;;;;;;;;;;;19.30;54.00;;;;;;5074009;28;19908;-62
2022/10/20 05:49:50;;;;;;;;;;;19.30;53.90;;;;;;5073764;28;20295;-62
2022/10/20 05:52:15;;;;;;;;;;;19.30;53.90;;;;;;5056051;28;19908;-63
2022/10/20 05:54:41;;;;;;;;;;;19.30;53.80;;;;;;5072848;28;19959;-63
2022/10/20 05:57:06;;;;;;;;;;;19.30;53.80;;;;;;5073772;28;19995;-62
2022/10/20 05:59:32;;;;;;;;;;;19.30;53.90;;;;;;5073648;28;20420;-62
2022/10/20 06:01:57;;;;;;;;;;;19.30;53.70;;;;;;5073803;28;20397;-62
2022/10/20 06:04:23;;;;;;;;;;;19.30;53.90;;;;;;5055436;28;20279;-62
2022/10/20 06:06:48;;;;;;;;;;;19.20;53.70;;;;;;5055636;28;20288;-62
2022/10/20 06:09:14;;;;;;;;;;;19.20;54.10;;;;;;5086276;28;20019;-62
2022/10/20 06:11:39;;;;;;;;;;;19.10;54.10;;;;;;5093968;28;19915;-62
2022/10/20 06:14:05;;;;;;;;;;;19.10;54.10;;;;;;5093515;28;19926;-62
2022/10/20 06:16:31;;;;;;;;;;;19.10;54.10;;;;;;5093839;28;20355;-62
2022/10/20 06:18:57;;;;;;;;;;;19.20;53.90;;;;;;5093746;28;20293;-63
2022/10/20 06:21:23;;;;;;;;;;;19.20;54.10;;;;;;5093260;28;19914;-62
2022/10/20 06:23:49;;;;;;;;;;;19.20;53.80;;;;;;5092615;28;19950;-62
2022/10/20 06:26:18;;;;;;;;;;;19.20;53.80;;;;;;5075647;28;19955;-62
2022/10/20 06:28:43;;;;;;;;;;;19.20;54.00;;;;;;5093374;28;19908;-62
2022/10/20 06:31:10;;;;;;;;;;;19.20;53.90;;;;;;5071872;28;20271;-62
2022/10/20 06:33:35;;;;;;;;;;;19.20;53.90;;;;;;5072884;28;19916;-62
2022/10/20 06:36:01;;;;;;;;;;;19.20;54.00;;;;;;5073123;28;20394;-62
2022/10/20 06:38:27;;;;;;;;;;;19.20;53.90;;;;;;5080362;28;20400;-62
2022/10/20 06:40:52;;;;;;;;;;;19.10;53.90;;;;;;5092377;28;19915;-62
2022/10/20 06:43:18;;;;;;;;;;;19.20;54.00;;;;;;5093284;28;19912;-62
2022/10/20 06:45:43;;;;;;;;;;;19.10;53.80;;;;;;5093207;28;20283;-62
2022/10/20 06:48:08;;;;;;;;;;;19.10;54.00;;;;;;5075022;28;19908;-62
2022/10/20 06:50:34;;;;;;;;;;;19.10;54.20;;;;;;5074756;28;19909;-62
2022/10/20 06:52:59;;;;;;;;;;;19.10;54.00;;;;;;5093076;28;19911;-62
2022/10/20 06:55:25;;;;;;;;;;;19.10;53.80;;;;;;5092182;28;20325;-62
2022/10/20 06:57:50;;;;;;;;;;;19.10;53.80;;;;;;5093155;28;20282;-62
2022/10/20 07:00:16;;;;;;;;;;;19.10;53.90;;;;;;5092912;28;20287;-62
2022/10/20 07:02:41;;;;;;;;;;;19.10;53.80;;;;;;5093063;28;20343;-62
2022/10/20 07:05:07;;;;;;;;;;;19.10;53.90;;;;;;5074339;28;20038;-62
2022/10/20 07:07:32;;;;;;;;;;;19.20;53.80;;;;;;5092883;28;19912;-62
2022/10/20 07:09:58;;;;;;;;;;;19.20;53.50;;;;;;5074202;28;19913;-62
2022/10/20 07:12:23;;;;;;;;;;;19.20;53.70;;;;;;5072653;28;20419;-63
2022/10/20 07:14:49;;;;;;;;;;;19.10;53.60;;;;;;5072288;28;19917;-62
2022/10/20 07:17:14;;;;;;;;;;;19.10;53.50;;;;;;5072609;28;19909;-62
2022/10/20 07:19:39;;;;;;;;;;;19.20;53.70;;;;;;5072383;28;19908;-62
2022/10/20 07:22:05;;;;;;;;;;;19.20;53.60;;;;;;5072566;28;19912;-62
2022/10/20 07:24:30;;;;;;;;;;;19.10;53.60;;;;;;5071592;28;19916;-62
2022/10/20 07:26:56;;;;;;;;;;;19.10;53.60;;;;;;5072604;28;19909;-62
2022/10/20 07:29:21;;;;;;;;;;;19.20;53.60;;;;;;5072257;28;19913;-63
2022/10/20 07:31:47;;;;;;;;;;;19.10;53.50;;;;;;5072542;28;19909;-63
2022/10/20 07:34:13;;;;;;;;;;;19.10;53.80;;;;;;5076086;28;19924;-63
2022/10/20 07:36:39;;;;;;;;;;;19.20;53.60;;;;;;5058942;28;19908;-63
2022/10/20 07:39:05;;;;;;;;;;;19.10;53.50;;;;;;5087970;28;20412;-63
2022/10/20 07:41:30;;;;;;;;;;;19.20;53.50;;;;;;5071907;28;19943;-62
2022/10/20 07:43:56;;;;;;;;;;;19.20;53.50;;;;;;5076411;28;19919;-62
2022/10/20 07:46:21;;;;;;;;;;;19.20;53.60;;;;;;5058617;28;19974;-62
2022/10/20 07:48:47;;;;;;;;;;;19.20;53.60;;;;;;5041550;28;19950;-62
2022/10/20 07:51:12;;;;;;;;;;;19.20;53.50;;;;;;5076294;28;19913;-62
2022/10/20 07:53:37;;;;;;;;;;;19.20;53.50;;;;;;5075686;28;19916;-63
2022/10/20 07:56:03;;;;;;;;;;;19.20;53.40;;;;;;5075740;28;19915;-62
2022/10/20 07:58:28;;;;;;;;;;;19.20;53.40;;;;;;5058225;28;19909;-62
2022/10/20 08:00:54;;;;;;;;;;;19.20;53.40;;;;;;5075811;28;19909;-62
2022/10/20 08:03:19;;;;;;;;;;;19.20;53.40;;;;;;5075932;28;19914;-62
2022/10/20 08:05:45;;;;;;;;;;;19.20;53.50;;;;;;5075694;28;20050;-62
2022/10/20 08:08:10;;;;;;;;;;;19.20;53.40;;;;;;5080795;28;19957;-62
2022/10/20 08:10:36;;;;;;;;;;;19.20;53.40;;;;;;5095149;28;19912;-62
2022/10/20 08:13:01;;;;;;;;;;;19.20;53.40;;;;;;5096152;28;19915;-62
2022/10/20 08:15:26;;;;;;;;;;;19.20;53.40;;;;;;5095980;28;19990;-62
2022/10/20 08:17:52;;;;;;;;;;;19.20;53.30;;;;;;5077924;28;19958;-62
2022/10/20 08:20:17;;;;;;;;;;;19.20;53.40;;;;;;5095764;28;19916;-62
2022/10/20 08:22:43;;;;;;;;;;;19.20;54.00;;;;;;5077980;28;19908;-62
2022/10/20 08:25:09;;;;;;;;;;;19.20;53.30;;;;;;5094861;28;20362;-62
2022/10/20 08:27:35;;;;;;;;;;;19.20;53.30;;;;;;5078003;28;19909;-62
2022/10/20 08:30:00;;;;;;;;;;;19.10;53.30;;;;;;5095932;28;19943;-62
2022/10/20 08:32:26;;;;;;;;;;;19.20;53.40;;;;;;5060038;28;19931;-62
2022/10/20 08:34:51;;;;;;;;;;;19.20;53.50;;;;;;5075190;28;19920;-62
2022/10/20 08:37:16;;;;;;;;;;;19.20;53.40;;;;;;5075456;28;19909;-62
2022/10/20 08:39:42;;;;;;;;;;;19.20;53.40;;;;;;5092092;28;19916;-62
2022/10/20 08:42:07;;;;;;;;;;;19.20;53.40;;;;;;5095639;28;19919;-62
2022/10/20 08:44:33;;;;;;;;;;;19.20;53.30;;;;;;5094752;28;19992;-62
2022/10/20 08:47:00;;;;;;;;;;;19.20;53.50;;;;;;5077421;28;19909;-62
2022/10/20 08:49:26;;;;;;;;;;;19.20;54.00;;;;;;5077076;28;19908;-62
2022/10/20 08:51:52;;;;;;;;;;;19.10;53.30;;;;;;5077291;28;19908;-62
2022/10/20 08:54:17;;;;;;;;;;;19.10;53.30;;;;;;5076188;28;19916;-62
2022/10/20 08:56:43;;;;;;;;;;;19.20;53.40;;;;;;5077444;28;19908;-62
2022/10/20 08:59:21;;;;;;;;;;;19.20;53.50;;;;;;5094918;28;19919;-62
2022/10/20 09:01:46;;;;;;;;;;;19.10;53.40;;;;;;5095198;28;19915;-62
2022/10/20 09:04:22;;;;;;;;;;;19.20;53.40;;;;;;5076587;28;19908;-62
2022/10/20 09:06:50;;;;;;;;;;;19.20;53.30;;;;;;5094950;28;20330;-62
2022/10/20 09:09:15;;;;;;;;;;;19.20;53.40;;;;;;5064447;28;19913;-62
2022/10/20 09:11:43;;;;;;;;;;;19.20;53.30;;;;;;5056803;28;20345;-62
2022/10/20 09:14:09;;;;;;;;;;;19.20;53.30;;;;;;5074373;28;19920;-62
2022/10/20 09:16:37;;;;;;;;;;;19.10;53.30;;;;;;5074676;28;20330;-62
2022/10/20 09:19:04;;;;;;;;;;;19.10;53.40;;;;;;5056933;28;19919;-62
2022/10/20 09:21:31;;;;;;;;;;;19.10;53.40;;;;;;5074654;28;19908;-62
2022/10/20 09:24:00;;;;;;;;;;;19.10;53.30;;;;;;5073589;28;19908;-62
2022/10/20 09:26:36;;;;;;;;;;;19.10;53.40;;;;;;5073310;28;19944;-63
2022/10/20 09:29:08;;;;;;;;;;;19.10;53.40;;;;;;5056459;28;19995;-62
2022/10/20 09:31:34;;;;;;;;;;;19.10;53.30;;;;;;5074714;28;19928;-63
2022/10/20 09:33:59;;;;;;;;;;;19.10;53.20;;;;;;5074000;28;20257;-63
2022/10/20 09:36:29;;;;;;;;;;;19.10;53.20;;;;;;5056700;28;20287;-62
2022/10/20 09:38:54;;;;;;;;;;;19.10;53.30;;;;;;5066769;28;19978;-62
2022/10/20 09:41:23;;;;;;;;;;;19.10;53.40;;;;;;5094315;28;19912;-62
2022/10/20 09:43:58;;;;;;;;;;;19.10;53.40;;;;;;5094271;28;19912;-62
2022/10/20 09:46:24;;;;;;;;;;;19.00;53.50;;;;;;5076235;28;20290;-62
2022/10/20 09:48:50;;;;;;;;;;;19.00;53.50;;;;;;5075911;28;20462;-62
2022/10/20 09:51:17;;;;;;;;;;;19.00;53.60;;;;;;5076195;28;19908;-62
2022/10/20 09:54:02;;;;;;;;;;;19.00;53.80;;;;;;5075431;28;19912;-62
2022/10/20 09:56:32;;;;;;;;;;;18.90;53.60;;;;;;5075193;28;19953;-62
2022/10/20 09:58:58;;;;;;;;;;;19.00;53.50;;;;;;5078687;28;20031;-62
2022/10/20 10:01:23;;;;;;;;;;;19.00;53.60;;;;;;5055765;28;19960;-62
2022/10/20 10:03:58;;;;;;;;;;;19.00;53.50;;;;;;5055721;28;19908;-62
2022/10/20 10:06:36;;;;;;;;;;;19.00;53.40;;;;;;5073553;28;19955;-62
2022/10/20 10:09:01;;;;;;;;;;;19.00;53.60;;;;;;5084713;28;19930;-62
2022/10/20 10:11:33;;;;;;;;;;;18.90;53.50;;;;;;5075766;28;19908;-62
2022/10/20 10:13:59;;;;;;;;;;;18.90;53.70;;;;;;5075421;28;19962;-62
2022/10/20 10:16:24;;;;;;;;;;;19.00;53.80;;;;;;5075640;28;19963;-62
2022/10/20 10:18:56;;;;;;;;;;;19.00;53.50;;;;;;5093620;28;20027;-62
2022/10/20 10:21:22;;;;;;;;;;;19.00;53.40;;;;;;5093870;28;19908;-62
2022/10/20 10:23:54;;;;;;;;;;;19.10;53.50;;;;;;5057766;28;19912;-62
2022/10/20 10:26:38;;;;;;;;;;;19.10;53.40;;;;;;5075498;28;19912;-62
2022/10/20 10:29:04;;;;;;;;;;;19.20;53.30;;;;;;5093323;28;19941;-63
2022/10/20 10:31:31;;;;;;;;;;;19.20;53.30;;;;;;5083567;28;20359;-63
2022/10/20 10:34:05;;;;;;;;;;;19.20;53.20;;;;;;5072803;28;19966;-62
2022/10/20 10:36:32;;;;;;;;;;;19.30;53.30;;;;;;5073208;28;20337;-62
2022/10/20 10:38:58;;;;;;;;;;;19.30;53.30;;;;;;5083686;28;19915;-62
2022/10/20 10:41:35;;;;;;;;;;;19.30;53.20;;;;;;5093616;28;19912;-63
2022/10/20 10:44:14;;;;;;;;;;;19.30;53.20;;;;;;5093028;28;20455;-62
2022/10/20 10:46:49;;;;;;;;;;;19.20;53.50;;;;;;5075203;28;19912;-62
2022/10/20 10:49:22;;;;;;;;;;;19.10;53.80;;;;;;5074922;28;19915;-63
2022/10/20 10:52:00;;;;;;;;;;;19.10;54.10;;;;;;5075133;28;19915;-62
2022/10/20 10:54:33;;;;;;;;;;;19.10;53.90;;;;;;5091994;28;20058;-62
2022/10/20 10:57:01;;;;;;;;;;;19.10;53.80;;;;;;5093069;28;20003;-62
2022/10/20 10:59:27;;;;;;;;;;;19.10;53.90;;;;;;5057992;28;20341;-62
2022/10/20 11:01:56;;;;;;;;;;;19.10;54.20;;;;;;5058095;28;19991;-62
2022/10/20 11:04:27;;;;;;;;;;;19.00;54.10;;;;;;5092392;28;19969;-62
2022/10/20 11:06:52;;;;;;;;;;;19.10;54.20;;;;;;5092630;28;19923;-62
2022/10/20 11:09:38;;;;;;;;;;;19.10;54.10;;;;;;5079742;28;19912;-62
2022/10/20 11:12:19;;;;;;;;;;;19.20;53.90;;;;;;5061589;28;19951;-62
2022/10/20 11:14:52;;;;;;;;;;;19.20;54.00;;;;;;5072390;28;19923;-62
2022/10/20 11:17:33;;;;;;;;;;;19.20;54.10;;;;;;5055121;28;19916;-62
2022/10/20 11:20:14;;;;;;;;;;;19.10;54.20;;;;;;5072474;28;19919;-62
2022/10/20 11:22:50;;;;;;;;;;;19.10;54.20;;;;;;5038200;28;19909;-62
2022/10/20 11:25:31;;;;;;;;;;;19.10;54.30;;;;;;5053681;28;19944;-62
2022/10/20 11:27:57;;;;;;;;;;;19.00;54.20;;;;;;5072925;28;19909;-62
2022/10/20 11:30:26;;;;;;;;;;;19.10;54.20;;;;;;5054513;28;19908;-62
2022/10/20 11:33:11;;;;;;;;;;;19.10;54.20;;;;;;5072573;28;19999;-62
2022/10/20 11:35:44;;;;;;;;;;;19.20;54.30;;;;;;5054425;28;19978;-62
2022/10/20 11:38:15;;;;;;;;;;;19.20;54.10;;;;;;5059710;28;20019;-62
2022/10/20 11:40:46;;;;;;;;;;;19.20;54.30;;;;;;5091889;28;20320;-62
2022/10/20 11:43:17;;;;;;;;;;;19.20;54.20;;;;;;5092669;28;19908;-63
2022/10/20 11:45:53;;;;;;;;;;;19.10;54.20;;;;;;5074667;28;19908;-62
2022/10/20 11:48:25;;;;;;;;;;;19.10;54.30;;;;;;5092558;28;19955;-62
2022/10/20 11:51:14;;;;;;;;;;;19.10;54.30;;;;;;5092375;28;19908;-62
2022/10/20 11:53:39;;;;;;;;;;;19.10;54.20;;;;;;5083495;28;19924;-62
2022/10/20 11:56:08;;;;;;;;;;;19.10;54.40;;;;;;5092071;28;19962;-62
2022/10/20 11:58:46;;;;;;;;;;;19.00;54.30;;;;;;5081226;28;20275;-62
2022/10/20 12:01:22;;;;;;;;;;;19.00;54.50;;;;;;5054415;28;19915;-62
2022/10/20 12:03:51;;;;;;;;;;;19.00;54.70;;;;;;5054023;28;19995;-62
2022/10/20 12:06:16;;;;;;;;;;;19.00;54.70;;;;;;5072161;28;20370;-62
2022/10/20 12:09:00;;;;;;;;;;;19.00;54.60;;;;;;5080967;28;19908;-62
2022/10/20 12:11:49;;;;;;;;;;;19.00;54.60;;;;;;5092415;28;19908;-62
2022/10/20 12:14:14;;;;;;;;;;;19.10;54.80;;;;;;5083592;28;19966;-62
2022/10/20 12:16:52;;;;;;;;;;;19.10;54.80;;;;;;5092426;28;19943;-62
2022/10/20 12:19:28;;;;;;;;;;;19.10;54.80;;;;;;5093012;28;19918;-62
2022/10/20 12:22:00;;;;;;;;;;;19.10;54.90;;;;;;5095987;28;20372;-62
2022/10/20 12:24:32;;;;;;;;;;;19.10;54.70;;;;;;5076948;28;19908;-62
2022/10/20 12:27:01;;;;;;;;;;;19.10;54.30;;;;;;5096325;28;19914;-62
2022/10/20 12:29:30;;;;;;;;;;;19.10;54.60;;;;;;5095626;28;19919;-62
2022/10/20 12:32:20;;;;;;;;;;;19.10;54.70;;;;;;5082259;28;19954;-62
2022/10/20 12:34:45;;;;;;;;;;;19.10;54.70;;;;;;5067311;28;19913;-62
2022/10/20 12:37:15;;;;;;;;;;;19.20;54.70;;;;;;5075455;28;19958;-62
2022/10/20 12:39:41;;;;;;;;;;;19.20;54.60;;;;;;5092013;28;19908;-62
2022/10/20 12:42:12;;;;;;;;;;;19.20;54.50;;;;;;5095673;28;20264;-63
2022/10/20 12:44:41;;;;;;;;;;;19.20;54.40;;;;;;5077267;28;19908;-62
2022/10/20 12:47:07;;;;;;;;;;;19.30;54.40;;;;;;5077536;28;19962;-62
2022/10/20 12:49:33;;;;;;;;;;;19.30;54.50;;;;;;5077458;28;19956;-62
2022/10/20 12:51:59;;;;;;;;;;;19.20;54.50;;;;;;5077423;28;20379;-62
2022/10/20 12:54:24;;;;;;;;;;;19.30;54.60;;;;;;5094221;28;19912;-62
2022/10/20 12:56:50;;;;;;;;;;;19.20;54.60;;;;;;5095465;28;19908;-63
2022/10/20 12:59:23;;;;;;;;;;;19.20;54.80;;;;;;5076918;28;19946;-62
2022/10/20 13:02:07;;;;;;;;;;;19.20;54.80;;;;;;5077270;28;19919;-63
2022/10/20 13:04:50;;;;;;;;;;;19.20;54.80;;;;;;5094870;28;19961;-62
2022/10/20 13:07:36;;;;;;;;;;;19.20;54.70;;;;;;5076875;28;19916;-62
2022/10/20 13:10:01;;;;;;;;;;;19.20;54.90;;;;;;5093846;28;19912;-62
2022/10/20 13:12:28;;;;;;;;;;;19.10;54.60;;;;;;5077203;28;19914;-62
2022/10/20 13:14:54;;;;;;;;;;;19.20;54.80;;;;;;5076609;28;20321;-62
2022/10/20 13:17:29;;;;;;;;;;;19.20;54.90;;;;;;5094972;28;19908;-62
2022/10/20 13:19:56;;;;;;;;;;;19.20;55.10;;;;;;5091868;28;19917;-62
2022/10/20 13:22:41;;;;;;;;;;;19.20;55.10;;;;;;5056698;28;20021;-62
2022/10/20 13:25:14;;;;;;;;;;;19.20;55.80;;;;;;5073464;28;19915;-62
2022/10/20 13:27:40;;;;;;;;;;;19.20;55.10;;;;;;5074800;28;19912;-62
2022/10/20 13:30:06;;;;;;;;;;;19.20;55.10;;;;;;5056117;28;20352;-62
2022/10/20 13:32:37;;;;;;;;;;;19.20;55.00;;;;;;5056474;28;19961;-62
2022/10/20 13:35:12;;;;;;;;;;;19.20;55.00;;;;;;5056146;28;20011;-62
2022/10/20 13:37:51;;;;;;;;;;;19.20;55.10;;;;;;5074609;28;19909;-62
2022/10/20 13:40:25;;;;;;;;;;;19.20;55.10;;;;;;5075336;28;19908;-62
2022/10/20 13:42:57;;;;;;;;;;;19.20;55.30;;;;;;5076323;28;19914;-63
2022/10/20 13:45:41;;;;;;;;;;;19.20;55.30;;;;;;5075884;28;19972;-63
2022/10/20 13:48:09;;;;;;;;;;;19.10;55.20;;;;;;5076073;28;20367;-62
2022/10/20 13:50:35;;;;;;;;;;;19.10;55.20;;;;;;5094173;28;19954;-62
2022/10/20 13:53:02;;;;;;;;;;;19.10;55.30;;;;;;5076143;28;20264;-62
2022/10/20 13:55:28;;;;;;;;;;;19.20;55.10;;;;;;5075055;28;19912;-62
2022/10/20 13:57:58;;;;;;;;;;;19.20;55.20;;;;;;5070551;28;19909;-62
2022/10/20 14:00:28;;;;;;;;;;;19.20;55.10;;;;;;5055824;28;19915;-62
2022/10/20 14:03:03;;;;;;;;;;;19.20;55.10;;;;;;5039387;28;20294;-62
2022/10/20 14:05:30;;;;;;;;;;;19.20;55.10;;;;;;5055705;28;19964;-62
2022/10/20 14:07:58;;;;;;;;;;;19.20;55.10;;;;;;5076625;28;19919;-62
2022/10/20 14:10:25;;;;;;;;;;;19.20;55.10;;;;;;5092959;28;19908;-62
2022/10/20 14:12:50;;;;;;;;;;;19.20;55.20;;;;;;5094306;28;19908;-62
2022/10/20 14:15:19;;;;;;;;;;;19.10;55.10;;;;;;5075642;28;20339;-62
2022/10/20 14:17:55;;;;;;;;;;;19.20;55.20;;;;;;5075776;28;19915;-62
2022/10/20 14:20:21;;;;;;;;;;;19.10;55.00;;;;;;5093574;28;19916;-62
2022/10/20 14:22:46;;;;;;;;;;;19.10;55.30;;;;;;5075909;28;19908;-62